Time;durP1;ratioP1;P1;durP2;ratioP2;P2;SDS_P1;SDS_P2;PMS_P1;PMS_P2;Temp;Humidity;BMP_temperature;BMP_pressure;BME280_temperature;BME280_humidity;BME280_pressure;Samples;Min_cycle;Max_cycle;Signal;HPM_P1;HPM_P2
2023/05/10 00:00:39;;;;;;;17.77;3.50;;;11.10;99.30;;;9.85;60.30;100968.91;4939661;28;20073;-73
2023/05/10 00:03:05;;;;;;;9.27;3.25;;;11.00;99.30;;;9.82;60.10;100966.41;4961827;28;20034;-73
2023/05/10 00:05:32;;;;;;;5.40;3.30;;;11.00;99.40;;;9.83;60.63;100964.66;4956624;28;20407;-75
2023/05/10 00:07:57;;;;;;;7.28;3.08;;;11.00;99.60;;;9.72;60.61;100962.44;4987173;28;20191;-74
2023/05/10 00:10:23;;;;;;;8.88;3.47;;;10.90;99.70;;;9.71;60.83;100968.59;4987012;28;20437;-74
2023/05/10 00:12:49;;;;;;;7.82;3.10;;;10.90;99.80;;;9.69;60.87;100956.44;4976324;28;20034;-75
2023/05/10 00:15:15;;;;;;;6.22;3.78;;;10.90;99.90;;;9.65;60.83;100963.56;4968376;28;20146;-74
2023/05/10 00:17:41;;;;;;;7.72;3.60;;;10.90;99.80;;;9.70;60.58;100956.38;4970135;28;20570;-73
2023/05/10 00:20:08;;;;;;;8.85;3.42;;;10.80;99.80;;;9.64;60.51;100957.47;4956809;28;20075;-74
2023/05/10 00:22:33;;;;;;;8.30;3.53;;;10.90;99.90;;;9.59;61.34;100956.81;4977269;28;20133;-74
2023/05/10 00:24:59;;;;;;;13.98;4.13;;;10.80;99.90;;;9.60;60.83;100957.66;4984165;28;20439;-74
2023/05/10 00:27:25;;;;;;;10.77;3.83;;;10.80;99.90;;;9.58;61.69;100946.34;4989601;28;20022;-73
2023/05/10 00:29:51;;;;;;;9.85;3.95;;;10.80;99.90;;;9.54;61.24;100948.22;4990591;28;20061;-74
2023/05/10 00:32:16;;;;;;;9.38;3.58;;;10.80;99.90;;;9.49;61.55;100944.91;4985486;28;20410;-74
2023/05/10 00:34:42;;;;;;;6.40;3.67;;;10.70;99.90;;;9.49;61.04;100938.81;4966503;28;20035;-73
2023/05/10 00:37:08;;;;;;;9.45;3.83;;;10.70;99.90;;;9.45;61.89;100933.66;4955330;28;20065;-74
2023/05/10 00:39:34;;;;;;;6.30;3.60;;;10.70;99.90;;;9.43;61.79;100935.47;4972213;28;20117;-75
2023/05/10 00:42:00;;;;;;;10.50;3.60;;;10.70;99.90;;;9.44;61.62;100942.47;4967654;28;20998;-73
2023/05/10 00:44:26;;;;;;;11.73;3.72;;;10.70;99.90;;;9.42;61.81;100936.41;4986396;28;20805;-75
2023/05/10 00:46:53;;;;;;;10.70;3.45;;;10.60;99.90;;;9.42;61.78;100938.19;4994089;28;20434;-73
2023/05/10 00:49:20;;;;;;;9.90;4.05;;;10.60;99.90;;;9.42;61.75;100939.03;4977182;28;20050;-74
2023/05/10 00:51:46;;;;;;;8.07;3.50;;;10.60;99.90;;;9.24;62.63;100934.47;4951858;28;20040;-74
2023/05/10 00:54:13;;;;;;;7.28;3.78;;;10.50;99.90;;;9.19;62.77;100928.53;4952449;28;20666;-73
2023/05/10 00:56:40;;;;;;;9.90;3.72;;;10.50;99.90;;;9.18;62.45;100926.84;4955523;28;20038;-73
2023/05/10 00:59:09;;;;;;;10.82;3.53;;;10.40;99.90;;;9.15;62.93;100919.91;4951745;28;20037;-74
2023/05/10 01:01:36;;;;;;;9.57;3.15;;;10.40;99.90;;;9.12;62.57;100927.91;4951919;28;20035;-73
2023/05/10 01:04:02;;;;;;;12.10;3.75;;;10.40;99.90;;;9.12;62.81;100927.91;4952925;28;20833;-73
2023/05/10 01:06:29;;;;;;;8.70;3.72;;;10.40;99.90;;;9.08;63.24;100917.59;4936914;28;20098;-73
2023/05/10 01:08:55;;;;;;;6.00;3.45;;;10.30;99.90;;;9.06;63.10;100924.66;4952944;28;20034;-74
2023/05/10 01:11:21;;;;;;;8.57;3.65;;;10.30;99.90;;;9.00;63.10;100923.97;4950289;28;20039;-74
2023/05/10 01:13:55;;;;;;;14.32;3.80;;;10.30;99.90;;;9.02;63.46;100926.53;4951103;28;20040;-74
2023/05/10 01:16:22;;;;;;;8.30;4.07;;;10.30;99.90;;;8.99;63.66;100924.03;4951782;28;20035;-73
2023/05/10 01:18:49;;;;;;;9.73;4.10;;;10.20;99.90;;;8.98;63.75;100917.06;4952872;28;20039;-73
2023/05/10 01:21:42;;;;;;;12.13;3.63;;;10.20;99.90;;;8.96;63.63;100917.13;4951130;28;20042;-74
2023/05/10 01:24:39;;;;;;;9.95;4.10;;;10.20;99.90;;;8.91;64.15;100918.22;4955858;28;20061;-73
2023/05/10 01:27:44;;;;;;;6.53;4.07;;;10.10;99.90;;;8.90;64.08;100921.72;4961678;28;20037;-74
2023/05/10 01:30:40;;;;;;;11.38;4.18;;;10.10;99.90;;;8.90;63.61;100924.34;4963074;28;20035;-73
2023/05/10 01:33:28;;;;;;;7.30;4.32;;;10.10;99.90;;;8.82;64.31;100915.00;4951994;28;20039;-73
2023/05/10 01:36:31;;;;;;;10.73;4.78;;;10.10;99.90;;;8.85;64.01;100926.31;4989630;28;20046;-73
2023/05/10 01:39:32;;;;;;;7.82;3.92;;;10.10;99.90;;;8.83;64.31;100923.72;4976613;28;20034;-73
2023/05/10 01:42:13;;;;;;;11.57;4.00;;;10.10;99.90;;;8.85;64.18;100907.91;4937335;28;20101;-75
2023/05/10 01:45:02;;;;;;;9.88;4.30;;;10.10;99.90;;;8.86;63.99;100909.66;4951544;28;20063;-74
2023/05/10 01:48:09;;;;;;;10.98;4.57;;;10.10;99.90;;;8.83;64.44;100908.84;4991729;28;20037;-74
2023/05/10 01:50:38;;;;;;;23.10;4.18;;;10.10;99.90;;;8.82;64.20;100907.13;4910096;29;20047;-74
2023/05/10 01:53:11;;;;;;;13.00;4.22;;;10.10;99.90;;;8.85;64.42;100902.66;4912977;29;20040;-74
2023/05/10 01:55:47;;;;;;;11.02;4.18;;;10.10;99.90;;;8.84;64.02;100899.19;4939693;28;20031;-73
2023/05/10 01:58:29;;;;;;;8.43;3.30;;;10.10;99.90;;;8.76;64.50;100903.88;4956874;28;20031;-73
2023/05/10 02:00:58;;;;;;;8.25;4.10;;;10.10;99.90;;;8.86;64.20;100904.41;4993024;28;20145;-74
2023/05/10 02:03:27;;;;;;;10.27;4.30;;;10.10;99.90;;;8.90;64.09;100913.84;4999704;28;20506;-73
2023/05/10 02:05:54;;;;;;;7.80;4.40;;;10.20;99.90;;;8.91;63.98;100903.31;4977329;28;20392;-74
2023/05/10 02:08:23;;;;;;;9.02;4.10;;;10.20;99.90;;;8.88;64.30;100902.56;4979385;28;20490;-75
2023/05/10 02:10:52;;;;;;;10.40;3.88;;;10.10;99.90;;;8.91;64.17;100911.19;4956188;28;20046;-74
2023/05/10 02:13:19;;;;;;;14.35;4.72;;;10.10;99.90;;;8.87;63.71;100906.09;4958936;28;20039;-74
2023/05/10 02:15:48;;;;;;;10.63;4.05;;;10.10;99.90;;;8.81;64.50;100900.16;4952787;28;20027;-73
2023/05/10 02:18:15;;;;;;;7.82;3.92;;;10.10;99.90;;;8.77;64.51;100902.97;4984755;28;20042;-73
2023/05/10 02:20:45;;;;;;;15.75;4.43;;;10.00;99.90;;;8.76;64.36;100911.75;4951523;28;20037;-73
2023/05/10 02:23:12;;;;;;;10.52;4.57;;;10.00;99.90;;;8.78;64.28;100902.03;4986636;28;20038;-74
2023/05/10 02:25:38;;;;;;;10.20;3.92;;;10.00;99.90;;;8.70;64.84;100904.94;4977922;28;20039;-74
2023/05/10 02:28:07;;;;;;;14.48;4.47;;;10.00;99.90;;;8.67;65.00;100902.44;4966374;28;20125;-73
2023/05/10 02:30:34;;;;;;;15.85;4.55;;;10.00;99.90;;;8.70;65.08;100891.81;4952668;28;20032;-73
2023/05/10 02:33:03;;;;;;;10.35;4.43;;;10.00;99.90;;;8.71;64.63;100893.53;4983247;28;20030;-73
2023/05/10 02:35:30;;;;;;;14.85;4.38;;;9.90;99.90;;;8.63;64.63;100901.66;4982732;28;20579;-74
2023/05/10 02:37:58;;;;;;;10.70;4.78;;;9.90;99.90;;;8.61;65.37;100897.38;4987732;28;20037;-73
2023/05/10 02:40:25;;;;;;;11.65;3.83;;;9.90;99.90;;;8.56;64.93;100892.31;4973636;28;20043;-73
2023/05/10 02:42:54;;;;;;;7.70;3.75;;;9.80;99.90;;;8.55;65.20;100890.63;4995395;28;20541;-75
2023/05/10 02:45:24;;;;;;;10.85;4.32;;;9.80;99.90;;;8.51;65.31;100890.75;4987763;28;20090;-74
2023/05/10 02:47:52;;;;;;;12.55;4.40;;;9.80;99.90;;;8.50;65.73;100896.94;4945095;28;20035;-73
2023/05/10 02:50:18;;;;;;;10.48;4.18;;;9.80;99.90;;;8.48;65.33;100893.50;4987027;28;20038;-74
2023/05/10 02:52:54;;;;;;;9.05;4.88;;;9.70;99.90;;;8.44;66.03;100891.88;4981038;28;20048;-73
2023/05/10 02:55:26;;;;;;;8.48;4.25;;;9.70;99.90;;;8.38;66.04;100892.91;4981575;28;20023;-74
2023/05/10 02:58:00;;;;;;;15.23;4.55;;;9.70;99.90;;;8.39;65.78;100897.25;4985658;28;20121;-73
2023/05/10 03:00:26;;;;;;;10.15;4.32;;;9.70;99.90;;;8.34;65.90;100886.94;4971480;28;20526;-74
2023/05/10 03:02:52;;;;;;;8.93;4.85;;;9.60;99.90;;;8.34;66.33;100889.56;4997511;28;20041;-74
2023/05/10 03:05:19;;;;;;;9.57;4.70;;;9.60;99.90;;;8.32;66.39;100887.91;4983845;28;20054;-74
2023/05/10 03:07:46;;;;;;;12.18;5.68;;;9.60;99.90;;;8.28;66.29;100888.91;4983495;28;20027;-74
2023/05/10 03:10:12;;;;;;;14.07;4.65;;;9.50;99.90;;;8.29;66.04;100888.84;4987267;28;20053;-73
2023/05/10 03:13:16;;;;;;;10.50;5.13;;;9.50;99.90;;;8.26;66.45;100885.50;4984360;28;20042;-72
2023/05/10 03:16:14;;;;;;;11.70;4.22;;;9.50;99.90;;;8.13;66.72;100879.81;4974787;28;20052;-73
2023/05/10 03:18:54;;;;;;;10.98;5.03;;;9.50;99.90;;;8.18;67.21;100877.88;4979705;28;20038;-73
2023/05/10 03:21:22;;;;;;;12.25;4.22;;;9.40;99.90;;;8.11;67.01;100885.09;4970446;28;20053;-73
2023/05/10 03:23:58;;;;;;;11.02;5.03;;;9.40;99.90;;;8.14;66.75;100884.13;4959322;28;20034;-74
2023/05/10 03:26:27;;;;;;;11.20;4.73;;;9.40;99.90;;;8.13;67.50;100890.28;4985543;28;20605;-73
2023/05/10 03:28:53;;;;;;;9.90;4.85;;;9.40;99.90;;;8.17;67.21;100889.28;4988322;28;20345;-74
2023/05/10 03:31:20;;;;;;;9.85;4.75;;;9.40;99.90;;;8.14;67.41;100892.00;4986903;28;20046;-73
2023/05/10 03:33:51;;;;;;;11.23;4.80;;;9.50;99.90;;;8.21;67.44;100888.28;4989617;28;20030;-73
2023/05/10 03:36:18;;;;;;;15.45;5.00;;;9.50;99.90;;;8.30;67.17;100892.34;4980033;28;20122;-74
2023/05/10 03:38:44;;;;;;;9.10;4.38;;;9.50;99.90;;;8.32;67.11;100888.75;4987659;28;20041;-73
2023/05/10 03:41:10;;;;;;;11.25;4.63;;;9.50;99.90;;;8.27;67.12;100885.44;4987019;28;20498;-73
2023/05/10 03:43:36;;;;;;;13.02;4.88;;;9.50;99.90;;;8.23;67.76;100886.44;4986402;28;20049;-73
2023/05/10 03:46:05;;;;;;;13.35;4.95;;;9.60;99.90;;;8.33;67.52;100887.81;4986431;28;20034;-73
2023/05/10 03:48:32;;;;;;;8.10;4.43;;;9.60;99.90;;;8.38;67.31;100892.91;4980894;28;20503;-73
2023/05/10 03:50:58;;;;;;;10.40;4.72;;;9.60;99.90;;;8.41;67.31;100887.59;4988719;28;20045;-74
2023/05/10 03:53:24;;;;;;;11.82;4.70;;;9.70;99.90;;;8.46;66.89;100892.69;4979026;28;20654;-73
2023/05/10 03:55:50;;;;;;;9.15;4.78;;;9.70;99.90;;;8.48;66.71;100896.97;4990815;28;20037;-73
2023/05/10 03:58:16;;;;;;;11.00;5.43;;;9.70;99.90;;;8.57;66.50;100890.53;4985732;28;20053;-73
2023/05/10 04:00:44;;;;;;;11.35;5.03;;;9.70;99.90;;;8.62;66.83;100891.25;4984879;28;20049;-73
2023/05/10 04:03:11;;;;;;;11.15;5.13;;;9.80;99.90;;;8.74;66.31;100890.78;4987641;28;20037;-73
2023/05/10 04:05:37;;;;;;;9.07;4.85;;;10.60;99.90;;;9.65;65.04;100898.72;4991211;28;20031;-76
2023/05/10 04:08:03;;;;;;;9.02;4.45;;;12.20;99.90;;;11.88;60.50;100922.28;4983442;28;20046;-73
2023/05/10 04:10:29;;;;;;;14.38;4.80;;;13.80;99.90;;;13.69;55.99;100936.59;4973467;28;20026;-75
2023/05/10 04:12:58;;;;;;;8.00;4.15;;;15.10;96.80;;;14.85;52.54;100953.72;4978135;28;20042;-75
2023/05/10 04:15:24;;;;;;;11.93;4.32;;;16.20;95.40;;;16.19;49.44;100962.03;4984736;28;20443;-75
2023/05/10 04:17:50;;;;;;;8.63;4.68;;;17.10;93.30;;;16.91;47.46;100967.81;4987306;28;20118;-74
2023/05/10 04:20:16;;;;;;;10.23;4.05;;;17.90;92.00;;;17.36;45.39;100968.19;4956473;28;20120;-76
2023/05/10 04:22:42;;;;;;;7.95;4.15;;;18.50;91.00;;;18.24;44.30;100978.66;4950183;28;20039;-76
2023/05/10 04:25:09;;;;;;;11.63;4.35;;;19.10;89.60;;;18.85;42.73;100989.19;4935372;28;20035;-75
2023/05/10 04:27:35;;;;;;;9.30;4.00;;;19.80;89.00;;;19.93;41.12;100993.16;4954704;28;20099;-73
2023/05/10 04:30:01;;;;;;;8.63;4.20;;;20.20;87.00;;;20.56;40.12;101004.84;4959946;28;20035;-73
2023/05/10 04:32:26;;;;;;;7.25;4.18;;;20.70;85.30;;;21.18;38.83;101021.03;4979844;28;20121;-75
2023/05/10 04:34:52;;;;;;;18.27;4.45;;;21.20;83.40;;;21.35;37.94;101022.25;4982316;28;20060;-73
2023/05/10 04:37:19;;;;;;;;;;;21.20;84.40;;;22.02;36.90;101034.19;4987932;28;20026;-75
2023/05/10 04:39:44;;;;;;;11.93;4.13;;;21.80;81.50;;;22.86;36.21;101049.78;4988229;28;20672;-74
2023/05/10 04:42:11;;;;;;;;;;;21.80;83.00;;;22.00;36.21;101031.63;4984955;28;20022;-74
2023/05/10 04:44:39;;;;;;;6.90;4.07;;;21.90;80.30;;;22.49;36.31;101034.41;4950635;28;20376;-74
2023/05/10 04:47:05;;;;;;;9.73;4.03;;;22.20;80.30;;;22.76;35.28;101046.25;4958169;28;20309;-73
2023/05/10 04:49:30;;;;;;;12.35;4.68;;;22.30;78.70;;;23.47;34.46;101073.53;4957008;28;20049;-74
2023/05/10 04:51:56;;;;;;;;;;;22.30;80.30;;;23.63;34.14;101067.53;4950628;28;20031;-75
2023/05/10 04:54:22;;;;;;;13.27;4.22;;;22.60;77.10;;;23.92;33.53;101080.84;4954552;28;19918;-73
2023/05/10 04:56:48;;;;;;;;;;;22.60;79.50;;;24.02;33.33;101085.34;4953162;28;20808;-74
2023/05/10 04:59:13;;;;;;;10.63;4.50;;;22.60;77.30;;;24.02;33.67;101082.66;4967297;28;19911;-74
2023/05/10 05:01:40;;;;;;;;;;;22.60;79.10;;;22.56;34.25;101065.03;4949801;28;20130;-74
2023/05/10 05:04:06;;;;;;;8.65;4.55;;;22.40;79.00;;;24.33;33.68;101096.63;4968028;28;19917;-74
2023/05/10 05:06:32;;;;;;;8.52;4.15;;;22.70;77.50;;;24.88;32.39;101107.28;4952965;28;20042;-73
2023/05/10 05:08:58;;;;;;;8.40;4.40;;;22.80;76.60;;;24.81;32.49;101114.25;4953362;28;20117;-73
2023/05/10 05:11:25;;;;;;;10.18;4.30;;;22.40;77.80;;;23.69;34.20;101098.34;4948885;28;20061;-75
2023/05/10 05:13:51;;;;;;;9.27;4.40;;;22.50;78.20;;;24.68;32.80;101113.81;4950922;28;20039;-75
2023/05/10 05:16:17;;;;;;;10.40;4.18;;;22.60;77.80;;;24.93;32.65;101117.56;4953130;28;20053;-74
2023/05/10 05:18:42;;;;;;;10.68;4.25;;;22.90;77.30;;;25.49;31.80;101131.66;4951718;28;20033;-73
2023/05/10 05:21:19;;;;;;;8.25;3.88;;;23.40;76.30;;;26.51;30.35;101137.97;4951446;28;20039;-73
2023/05/10 05:23:45;;;;;;;;;;;23.50;77.70;;;26.18;30.62;101143.31;4980739;28;20760;-73
2023/05/10 05:26:11;;;;;;;7.68;4.00;;;23.50;76.00;;;26.10;30.90;101130.63;4986400;28;19991;-74
2023/05/10 05:28:37;;;;;;;8.35;4.03;;;23.60;76.90;;;26.63;30.27;101142.09;4988866;28;20042;-73
2023/05/10 05:31:07;;;;;;;9.85;4.20;;;23.60;75.00;;;25.80;30.62;101140.06;4982981;28;20047;-74
2023/05/10 05:33:33;;;;;;;6.72;3.95;;;24.10;75.70;;;27.13;29.90;101159.19;4978896;28;20125;-73
2023/05/10 05:36:05;;;;;;;24.60;4.63;;;24.10;75.20;;;27.17;29.83;101155.97;4988354;28;20029;-74
2023/05/10 05:38:31;;;;;;;14.23;4.40;;;24.20;75.20;;;26.71;30.16;101152.88;4979342;28;20725;-75
2023/05/10 05:40:57;;;;;;;10.63;3.75;;;24.40;74.80;;;26.71;29.85;101155.59;4986934;28;20122;-74
2023/05/10 05:43:23;;;;;;;9.35;4.40;;;24.40;75.50;;;27.43;29.58;101160.38;4984739;28;20054;-73
2023/05/10 05:45:49;;;;;;;13.38;4.13;;;24.80;73.80;;;27.77;29.31;101168.22;4978275;28;22275;-74
2023/05/10 05:48:15;;;;;;;;;;;24.80;75.70;;;26.58;29.17;101155.22;4983892;28;20120;-74
2023/05/10 05:50:41;;;;;;;7.22;4.20;;;24.80;73.40;;;27.15;29.59;101163.41;4978168;28;19918;-74
2023/05/10 05:53:06;;;;;;;;;;;24.80;75.20;;;27.87;28.72;101178.88;4988397;28;20038;-74
2023/05/10 05:55:32;;;;;;;9.13;3.95;;;25.40;73.10;;;28.53;28.58;101184.00;4983668;28;19926;-76
2023/05/10 05:57:58;;;;;;;10.98;3.90;;;25.20;72.90;;;27.78;28.85;101179.91;4956084;28;20093;-73
2023/05/10 06:00:24;;;;;;;6.60;3.53;;;25.60;72.90;;;28.83;28.16;101188.59;4949753;28;20034;-74
2023/05/10 06:02:50;;;;;;;6.82;3.78;;;25.70;72.00;;;27.67;28.47;101172.13;4951275;28;20053;-74
2023/05/10 06:05:16;;;;;;;9.77;3.42;;;25.60;71.90;;;28.00;28.28;101178.31;4950938;28;20035;-75
2023/05/10 06:07:42;;;;;;;9.40;3.65;;;25.50;71.60;;;27.37;29.43;101167.28;4980529;28;20053;-73
2023/05/10 06:10:09;;;;;;;12.73;4.00;;;25.70;71.70;;;27.66;29.05;101171.28;4980606;28;20053;-76
2023/05/10 06:12:35;;;;;;;5.95;3.60;;;25.10;71.00;;;25.14;30.49;101154.94;4977339;28;20047;-75
2023/05/10 06:15:02;;;;;;;7.50;3.83;;;24.80;72.70;;;26.07;30.84;101147.16;4987871;28;20050;-74
2023/05/10 06:17:28;;;;;;;6.40;3.60;;;25.10;72.90;;;26.97;29.63;101149.19;4981335;28;20157;-74
2023/05/10 06:19:54;;;;;;;7.97;3.90;;;25.30;72.30;;;26.52;30.55;101150.47;4966006;28;20120;-74
2023/05/10 06:22:22;;;;;;;9.95;3.60;;;25.60;72.50;;;26.94;29.48;101150.38;4997915;28;20104;-74
2023/05/10 06:24:48;;;;;;;6.45;2.75;;;25.40;70.70;;;25.31;30.58;101132.56;4979478;28;20114;-75
2023/05/10 06:27:14;;;;;;;11.48;3.22;;;24.50;71.60;;;23.85;32.89;101106.66;4985183;28;20037;-74
2023/05/10 06:29:40;;;;;;;7.43;3.50;;;24.50;72.50;;;24.79;32.09;101118.09;4974662;28;20034;-74
2023/05/10 06:32:06;;;;;;;8.90;3.80;;;24.60;74.60;;;25.26;32.30;101117.84;4981816;28;20450;-74
2023/05/10 06:34:32;;;;;;;10.65;3.55;;;24.90;73.90;;;25.45;32.00;101125.72;4984645;28;20045;-74
2023/05/10 06:36:58;;;;;;;;;;;24.90;75.20;;;26.43;30.59;101137.97;4972413;28;20050;-74
2023/05/10 06:39:23;;;;;;;5.90;3.40;;;26.10;72.50;;;27.64;29.72;101150.84;4978432;28;19917;-75
2023/05/10 06:41:49;;;;;;;;;;;26.20;73.70;;;25.44;30.55;101118.63;4985900;28;20042;-75
2023/05/10 06:44:15;;;;;;;6.57;3.35;;;26.00;69.20;;;25.35;31.29;101120.41;4984626;28;20440;-73
2023/05/10 06:46:41;;;;;;;8.45;3.67;;;25.90;71.30;;;26.04;31.13;101128.56;4969260;28;20638;-74
2023/05/10 06:49:07;;;;;;;13.73;3.70;;;26.00;70.10;;;25.83;31.03;101126.28;4958281;28;20045;-75
2023/05/10 06:51:33;;;;;;;7.00;3.35;;;25.70;70.50;;;25.28;31.29;101113.16;4984321;28;20047;-73
2023/05/10 06:53:59;;;;;;;10.07;3.85;;;25.70;69.90;;;25.09;31.33;101104.22;4955342;28;20042;-74
2023/05/10 06:56:25;;;;;;;11.32;3.83;;;25.50;69.50;;;24.60;31.62;101097.56;4948848;28;20497;-74
2023/05/10 06:58:51;;;;;;;5.43;3.05;;;25.00;70.70;;;23.94;32.67;101078.88;4953804;28;20087;-76
2023/05/10 07:01:17;;;;;;;;;;;25.00;72.10;;;24.27;31.92;101089.97;4973370;28;20039;-74
2023/05/10 07:03:43;;;;;;;8.15;3.25;;;24.80;71.50;;;24.06;32.91;101087.59;4960155;28;19996;-74
2023/05/10 07:06:08;;;;;;;;;;;24.80;72.90;;;24.03;32.96;101079.81;4958099;28;20110;-75
2023/05/10 07:08:34;;;;;;;7.05;3.35;;;25.00;71.60;;;24.50;32.98;101076.97;4966329;28;19925;-74
2023/05/10 07:11:07;;;;;;;8.98;3.60;;;25.00;71.50;;;24.39;32.63;101079.03;4982250;28;20035;-76
2023/05/10 07:13:33;;;;;;;6.18;3.53;;;25.30;71.30;;;24.90;32.12;101083.72;4983849;28;20034;-75
2023/05/10 07:16:02;;;;;;;6.47;3.15;;;25.20;70.70;;;24.39;32.81;101087.09;4973986;28;20037;-75
2023/05/10 07:18:28;;;;;;;6.40;2.58;;;25.00;70.90;;;23.10;34.17;101060.91;4965662;28;20038;-73
2023/05/10 07:20:54;;;;;;;10.45;3.33;;;24.80;71.70;;;23.63;34.08;101053.22;4983656;28;20479;-74
2023/05/10 07:23:21;;;;;;;8.80;3.70;;;25.00;72.80;;;24.36;33.05;101067.56;5001318;28;20073;-74
2023/05/10 07:25:48;;;;;;;6.35;3.38;;;25.00;72.40;;;24.25;33.09;101054.31;4951244;28;20019;-73
2023/05/10 07:28:15;;;;;;;9.65;3.20;;;25.30;72.00;;;24.58;32.83;101065.44;4983299;28;20039;-73
2023/05/10 07:30:42;;;;;;;7.82;3.05;;;24.70;72.10;;;23.12;34.66;101042.81;4987247;28;20034;-73
2023/05/10 07:33:10;;;;;;;6.78;3.17;;;24.70;74.40;;;23.99;34.66;101039.91;4968849;28;20122;-73
2023/05/10 07:35:36;;;;;;;9.00;3.58;;;24.60;73.30;;;23.18;35.09;101032.50;4986766;28;20042;-73
2023/05/10 07:38:02;;;;;;;5.60;3.15;;;24.70;73.30;;;23.93;34.00;101027.91;4957784;28;20030;-73
2023/05/10 07:40:28;;;;;;;5.07;3.40;;;24.60;73.20;;;23.15;34.74;101022.88;4966886;28;20046;-76
2023/05/10 07:42:55;;;;;;;8.35;3.45;;;24.60;73.90;;;23.80;34.46;101031.00;4982898;28;20034;-73
2023/05/10 07:45:22;;;;;;;9.88;3.20;;;24.80;73.70;;;23.98;34.29;101022.09;4975815;28;20030;-72
2023/05/10 07:47:47;;;;;;;14.90;3.20;;;25.10;73.80;;;24.75;33.64;101045.72;4988023;28;20026;-73
2023/05/10 07:50:14;;;;;;;10.07;3.25;;;25.20;72.20;;;24.30;33.27;101038.56;4984927;28;20562;-74
2023/05/10 07:52:40;;;;;;;6.82;3.28;;;25.20;72.40;;;24.38;33.43;101040.47;4970888;28;20034;-73
2023/05/10 07:55:07;;;;;;;11.07;3.22;;;25.40;73.90;;;24.80;33.63;101044.41;4967634;28;20039;-73
2023/05/10 07:57:36;;;;;;;5.82;3.13;;;25.40;73.10;;;24.76;33.65;101035.78;4953909;28;20045;-73
2023/05/10 08:00:03;;;;;;;6.22;3.05;;;25.30;72.20;;;24.29;33.74;101023.41;4985623;28;20491;-75
2023/05/10 08:02:29;;;;;;;8.23;3.15;;;25.30;72.40;;;24.35;33.24;101030.03;4967223;28;20039;-73
2023/05/10 08:04:55;;;;;;;8.27;2.90;;;24.90;71.40;;;23.23;34.37;101006.03;5003590;28;20045;-73
2023/05/10 08:07:21;;;;;;;6.35;2.92;;;24.50;73.60;;;23.34;34.69;101006.69;4988408;28;20037;-73
2023/05/10 08:09:47;;;;;;;5.60;2.53;;;24.30;74.30;;;22.89;35.13;100998.47;4985923;28;20097;-73
2023/05/10 08:12:13;;;;;;;8.98;3.10;;;24.10;74.60;;;23.23;35.49;101006.03;4989756;28;20109;-73
2023/05/10 08:14:39;;;;;;;8.82;2.80;;;24.00;75.60;;;23.26;35.72;101001.22;4989601;28;20050;-74
2023/05/10 08:17:05;;;;;;;;;;;24.00;76.70;;;22.64;35.51;100991.88;4979953;28;20044;-73
2023/05/10 08:19:31;;;;;;;6.60;3.03;;;23.70;75.20;;;22.45;35.96;100987.38;4977882;28;19914;-73
2023/05/10 08:21:57;;;;;;;5.40;2.95;;;23.10;75.90;;;21.61;37.33;100967.22;4981526;28;20117;-73
2023/05/10 08:24:22;;;;;;;5.63;2.50;;;22.70;77.60;;;21.42;37.73;100962.66;4978047;28;20066;-74
2023/05/10 08:26:48;;;;;;;7.13;2.22;;;22.60;77.90;;;21.45;37.55;100964.25;4987778;28;20069;-74
2023/05/10 08:29:15;;;;;;;6.32;2.88;;;22.50;79.60;;;21.59;38.56;100954.97;4984196;28;20038;-74
2023/05/10 08:31:41;;;;;;;8.73;2.90;;;22.40;78.90;;;21.69;38.02;100969.22;4970546;28;20169;-73
2023/05/10 08:34:07;;;;;;;7.22;2.50;;;21.90;81.00;;;20.90;39.83;100953.81;4954114;28;20118;-74
2023/05/10 08:36:32;;;;;;;10.80;3.05;;;21.60;79.60;;;20.42;39.40;100957.84;4953751;28;20428;-74
2023/05/10 08:38:59;;;;;;;7.25;2.67;;;21.40;80.30;;;20.34;39.79;100933.59;4966890;28;20039;-75
2023/05/10 08:41:25;;;;;;;8.40;2.60;;;21.20;82.90;;;20.25;40.98;100929.03;4954277;28;20523;-76
2023/05/10 08:43:53;;;;;;;7.97;3.20;;;21.10;83.30;;;20.14;41.27;100923.72;4954324;28;20031;-73
2023/05/10 08:46:22;;;;;;;6.82;2.47;;;20.90;82.30;;;19.26;41.21;100906.81;4951541;28;20125;-73
2023/05/10 08:48:51;;;;;;;6.85;2.80;;;20.60;84.80;;;19.41;42.83;100905.56;4992807;28;20037;-74
2023/05/10 08:51:26;;;;;;;13.13;2.97;;;20.50;86.60;;;19.47;43.54;100910.44;4961992;28;20026;-73
2023/05/10 08:53:53;;;;;;;6.50;2.33;;;20.50;86.00;;;19.52;43.52;100909.22;4983587;28;20058;-75
2023/05/10 08:56:20;;;;;;;14.85;2.72;;;20.60;85.10;;;19.54;42.63;100909.94;4985317;28;20034;-74
2023/05/10 08:58:46;;;;;;;4.35;2.40;;;20.50;84.10;;;19.37;42.60;100909.50;4988409;28;20031;-73
2023/05/10 09:01:13;;;;;;;4.93;2.53;;;20.40;85.60;;;18.99;43.60;100899.22;4969050;28;20511;-73
2023/05/10 09:03:39;;;;;;;8.57;2.60;;;20.20;86.10;;;18.90;43.85;100903.47;4967867;28;20039;-73
2023/05/10 09:06:06;;;;;;;10.23;2.63;;;20.00;86.80;;;18.76;44.15;100892.97;4985921;28;20121;-74
2023/05/10 09:08:34;;;;;;;6.78;2.30;;;19.90;86.80;;;18.87;44.06;100901.03;4984194;28;20428;-73
2023/05/10 09:11:01;;;;;;;8.15;2.80;;;20.10;88.40;;;19.19;44.36;100898.47;4985535;28;20050;-74
2023/05/10 09:13:28;;;;;;;4.68;2.35;;;20.20;86.60;;;19.03;43.58;100892.66;4982129;28;20555;-71
2023/05/10 09:15:54;;;;;;;6.30;2.50;;;20.00;86.90;;;18.90;43.89;100891.91;4989240;28;20080;-73
2023/05/10 09:18:23;;;;;;;4.28;2.50;;;20.10;87.90;;;19.35;43.94;100899.88;4984814;28;20033;-74
2023/05/10 09:20:49;;;;;;;7.80;2.60;;;20.30;88.30;;;19.52;43.72;100906.53;4975975;28;20040;-73
2023/05/10 09:23:19;;;;;;;6.30;2.30;;;20.50;86.20;;;19.63;43.28;100904.69;4988887;28;20042;-73
2023/05/10 09:25:45;;;;;;;2.85;2.00;;;20.50;86.40;;;19.51;43.38;100899.50;4980193;28;20045;-73
2023/05/10 09:28:17;;;;;;;8.25;2.78;;;20.60;86.90;;;19.82;43.32;100903.19;4971527;28;20022;-73
2023/05/10 09:30:52;;;;;;;8.85;2.90;;;20.60;85.60;;;19.60;42.54;100893.41;4960388;28;20058;-74
2023/05/10 09:33:19;;;;;;;4.78;2.40;;;20.50;88.20;;;19.53;44.17;100893.06;4987159;28;20039;-74
2023/05/10 09:35:44;;;;;;;9.57;3.15;;;20.70;89.30;;;19.93;43.77;100896.97;4985217;28;20046;-75
2023/05/10 09:38:13;;;;;;;7.25;2.30;;;20.70;86.00;;;19.51;43.11;100880.81;4988217;28;20785;-73
2023/05/10 09:40:39;;;;;;;9.35;2.63;;;20.70;87.50;;;19.77;43.74;100884.88;4988937;28;20057;-73
2023/05/10 09:43:10;;;;;;;4.97;2.60;;;20.70;88.80;;;19.70;44.85;100877.50;4974458;28;20491;-73
2023/05/10 09:45:41;;;;;;;6.55;2.15;;;20.80;87.60;;;19.72;43.51;100876.41;4966902;28;20034;-76
2023/05/10 09:48:07;;;;;;;6.03;2.05;;;20.70;84.80;;;19.65;42.73;100876.03;4968935;28;20584;-73
2023/05/10 09:50:33;;;;;;;10.18;2.45;;;20.70;85.50;;;19.72;42.85;100878.22;4982938;28;20128;-73
2023/05/10 09:53:03;;;;;;;10.52;2.58;;;20.80;84.80;;;19.78;42.89;100881.22;4983341;28;20030;-74
2023/05/10 09:55:46;;;;;;;10.75;2.47;;;20.90;86.40;;;20.02;42.40;100883.69;4981208;28;21166;-74
2023/05/10 09:58:18;;;;;;;8.13;2.15;;;21.00;86.60;;;20.21;43.46;100885.63;4953482;28;20050;-75
2023/05/10 10:00:52;;;;;;;6.38;2.08;;;21.00;86.50;;;20.01;43.36;100882.00;4982826;28;20061;-72
2023/05/10 10:03:25;;;;;;;9.10;2.10;;;20.90;85.50;;;19.85;42.63;100877.09;4962994;28;20071;-73
2023/05/10 10:05:52;;;;;;;5.57;2.05;;;20.90;85.10;;;19.90;42.63;100873.19;4952129;28;20061;-74
2023/05/10 10:08:21;;;;;;;7.40;2.00;;;21.00;84.40;;;20.07;41.75;100876.13;4958054;28;20039;-74
2023/05/10 10:10:48;;;;;;;8.45;2.15;;;21.00;83.40;;;19.93;41.15;100878.25;4949916;28;20558;-74
2023/05/10 10:13:15;;;;;;;7.28;1.90;;;21.00;84.30;;;19.85;41.95;100876.25;4948322;28;20039;-74
2023/05/10 10:15:43;;;;;;;7.65;2.10;;;20.90;85.10;;;20.09;42.54;100881.34;4978629;28;20054;-74
2023/05/10 10:18:15;;;;;;;6.25;1.92;;;21.00;84.30;;;19.84;41.53;100888.72;4969783;28;20447;-75
2023/05/10 10:20:41;;;;;;;8.23;2.00;;;21.00;85.50;;;20.14;42.22;100876.47;4963406;28;20099;-73
2023/05/10 10:23:11;;;;;;;16.17;2.50;;;21.10;86.70;;;20.43;42.35;100878.47;4969849;28;20035;-75